Weather at Bayankhongor Airport

Public forecast

Using degrees Celsius for public forecast. Weather courtesy of forecast.io.

Closest aviation weather report (METAR) to Bayankhongor Airport

Closest report is Ulaanbaatar Chinggis Khaan International Airport, 266.1 nm (492.9 km) ENE.

2022/12/03 15:30 (retrieved 29 minutes ago)

ZMCK 031530Z 09005MPS CAVOK M28/M31 Q1025 NOSIG

Closest aviation forecast (TAF) to Bayankhongor Airport

Closest forecast is Ulaanbaatar Chinggis Khaan International Airport, 266.1 nm (492.9 km) ENE.

2022/12/03 12:36 (retrieved 3 hours ago)

TAF ZMCK 031036Z 0312/0418 VRB02MPS CAVOK TNM31/0323Z TXM20/0407Z